»·PEaware :: SWA3330 KSFO-KBUR

SWA3330 :: KSFO-KBUR

FLIGHT INFORMATION

Flight Status: Arrived
Operator:
Southwest Airlines
More flights by this operator :: More flights under this callsign
Pilot: Skye D. (10623)
Aircraft: BOEING 737-300
(B733)
More flights by this aircraft type
Origin: KSFO San Francisco Intl
United States
Destination: KBUR Bob Hope-Burbank
United States
More flights between these airports :: More routes between these airports
Route: SSTIK3 CISKO RDHOT ROKKR1
File this flight plan on PilotEdge
Remarks:
Altitude:
(Current/Filed)
35,000ft
Speed:
(Current/Filed)
418kts
Departed: 04-Feb-18 02:47 PM
Arrived: 04-Feb-18 03:47 PM
Distance/Time
Traveled:
283nm/1:00
Distance/Time
To Go:
Arrived

Flight Plot

Page will automatically refresh every two minutes.

Flight plan parsing failed; only flown route is shown


Map Options




Map Legend


Flown Route
Filed Route
Departure Airport
Arrival Airport
Navaid (VOR, NDB)
Fix

Horizontal Profiles

Position Reports

Time Latitude Longitude Heading Altitude Ground
Speed
04-Feb-18 14:33 37.612665 -122.384665 6 20ft 0kts
04-Feb-18 14:34 37.612665 -122.384665 6 20ft 0kts
04-Feb-18 14:35 37.612665 -122.384665 6 20ft 0kts
04-Feb-18 14:36 37.612665 -122.384665 6 20ft 0kts
04-Feb-18 14:37 37.612665 -122.384665 6 20ft 0kts
04-Feb-18 14:38 37.612665 -122.384665 6 20ft 0kts
04-Feb-18 14:39 37.612665 -122.384665 6 20ft 0kts
04-Feb-18 14:40 37.612665 -122.384665 6 20ft 0kts
04-Feb-18 14:41 37.612665 -122.384665 6 20ft 0kts
04-Feb-18 14:42 37.612665 -122.384665 6 20ft 0kts
04-Feb-18 14:43 37.612665 -122.384665 6 20ft 0kts
04-Feb-18 14:44 37.612411 -122.384701 6 20ft 2kts
04-Feb-18 14:45 37.611817 -122.384781 6 20ft 2kts
04-Feb-18 14:46 37.611253 -122.384861 6 20ft 2kts
04-Feb-18 14:47 37.611383 -122.384016 123 20ft 1kts
04-Feb-18 14:48 37.611374 -122.383997 123 20ft 0kts
04-Feb-18 14:49 37.611374 -122.383997 123 20ft 0kts
04-Feb-18 14:50 37.611374 -122.383997 123 20ft 0kts
04-Feb-18 14:51 37.610622 -122.383596 204 20ft 12kts
04-Feb-18 14:51 37.609256 -122.383593 131 20ft 6kts
04-Feb-18 14:52 37.608682 -122.382415 63 20ft 6kts
04-Feb-18 14:53 37.624469 -122.371931 28 181ft 153kts
04-Feb-18 14:55 37.671037 -122.360663 2 2381ft 203kts
04-Feb-18 14:56 37.702388 -122.389672 273 4405ft 229kts
04-Feb-18 14:56 37.692437 -122.448237 238 6630ft 249kts
04-Feb-18 14:57 37.631399 -122.477281 177 8959ft 296kts
04-Feb-18 14:58 37.556647 -122.474475 181 10750ft 341kts
04-Feb-18 14:59 37.476573 -122.458080 142 13208ft 359kts
04-Feb-18 15:00 37.423166 -122.393822 137 15107ft 369kts
04-Feb-18 15:01 37.359404 -122.316687 138 17123ft 381kts
04-Feb-18 15:02 37.292616 -122.236241 138 18994ft 392kts
04-Feb-18 15:03 37.227496 -122.158026 138 20710ft 399kts
04-Feb-18 15:04 37.157372 -122.074023 138 22307ft 408kts
04-Feb-18 15:05 37.082555 -121.984646 138 23818ft 418kts
04-Feb-18 15:06 37.004910 -121.892162 138 25210ft 427kts
04-Feb-18 15:07 36.929445 -121.802535 138 26478ft 434kts
04-Feb-18 15:08 36.848555 -121.707011 139 27664ft 442kts
04-Feb-18 15:09 36.763443 -121.606596 139 28856ft 448kts
04-Feb-18 15:10 36.677697 -121.505696 139 30324ft 444kts
04-Feb-18 15:11 36.594462 -121.408069 139 31502ft 443kts
04-Feb-18 15:12 36.513610 -121.312958 139 32517ft 443kts
04-Feb-18 15:13 36.434933 -121.220638 139 33474ft 441kts
04-Feb-18 15:14 36.353749 -121.130901 144 34271ft 439kts
04-Feb-18 15:15 36.267956 -121.043945 143 35018ft 439kts
04-Feb-18 15:16 36.182524 -120.956499 143 35105ft 436kts
04-Feb-18 15:17 36.094322 -120.866495 143 35101ft 437kts
04-Feb-18 15:18 36.005513 -120.776136 143 35102ft 436kts
04-Feb-18 15:19 35.921397 -120.690806 143 35102ft 437kts
04-Feb-18 15:20 35.888978 -120.658006 143 35075ft 437kts
04-Feb-18 15:21 35.799278 -120.567633 143 35103ft 437kts
04-Feb-18 15:22 35.709198 -120.476892 143 35101ft 437kts
04-Feb-18 15:23 35.622967 -120.391251 143 35102ft 436kts
04-Feb-18 15:24 35.549460 -120.315473 141 35096ft 436kts
04-Feb-18 15:25 35.464281 -120.225942 142 35103ft 437kts
04-Feb-18 15:26 35.377195 -120.135348 142 35073ft 436kts
04-Feb-18 15:27 35.290716 -120.045644 142 35075ft 437kts
04-Feb-18 15:28 35.205243 -119.957269 142 32171ft 438kts
04-Feb-18 15:29 35.119979 -119.869323 142 29035ft 432kts
04-Feb-18 15:30 35.036231 -119.783158 142 26551ft 409kts
04-Feb-18 15:31 34.953570 -119.698381 143 24328ft 400kts
04-Feb-18 15:32 34.874287 -119.616795 137 22208ft 395kts
04-Feb-18 15:33 34.808851 -119.520852 131 20247ft 385kts
04-Feb-18 15:34 34.747644 -119.429806 138 18442ft 379kts
04-Feb-18 15:35 34.686064 -119.339694 126 16521ft 373kts
04-Feb-18 15:36 34.632456 -119.247288 121 15731ft 345kts
04-Feb-18 15:37 34.586447 -119.153451 120 13543ft 332kts
04-Feb-18 15:38 34.542080 -119.067853 137 12411ft 315kts
04-Feb-18 15:39 34.480278 -119.010526 143 10799ft 289kts
04-Feb-18 15:40 34.425385 -118.959304 141 9818ft 268kts
04-Feb-18 15:41 34.369400 -118.904526 137 9252ft 280kts
04-Feb-18 15:42 34.313116 -118.841897 137 7975ft 292kts
04-Feb-18 15:43 34.259154 -118.782680 138 6922ft 272kts
04-Feb-18 15:44 34.209939 -118.728963 138 6075ft 260kts
04-Feb-18 15:45 34.164497 -118.678538 137 6017ft 234kts
04-Feb-18 15:46 34.151964 -118.622305 62 5200ft 216kts
04-Feb-18 15:47 34.173046 -118.572554 62 4175ft 207kts
04-Feb-18 15:48 34.192305 -118.527489 73 3443ft 175kts
04-Feb-18 15:49 34.197377 -118.486661 84 2784ft 148kts
04-Feb-18 15:50 34.199333 -118.450505 90 2268ft 134kts
04-Feb-18 15:51 34.198656 -118.417606 91 1675ft 137kts
04-Feb-18 15:52 34.198123 -118.383360 94 1096ft 144kts
04-Feb-18 15:53 34.197719 -118.353999 91 784ft 28kts
04-Feb-18 15:54 34.197183 -118.351036 183 784ft 6kts
04-Feb-18 15:55 34.196825 -118.351051 180 784ft 0kts

Navigation Log

Ident Type
Flight plan parsing failed, navigation log unavailable